sensor_id;sensor_type;location;lat;lon;timestamp;temperature;humidity
9776;DHT22;4927;52.472;13.108;2023-03-18T00:00:42;8.20;99.90
9776;DHT22;4927;52.472;13.108;2023-03-18T00:02:00;8.20;99.90
9776;DHT22;4927;52.472;13.108;2023-03-18T00:03:16;8.20;99.90
9776;DHT22;4927;52.472;13.108;2023-03-18T00:04:33;8.20;99.90
9776;DHT22;4927;52.472;13.108;2023-03-18T00:05:51;8.20;99.90
9776;DHT22;4927;52.472;13.108;2023-03-18T00:07:08;8.20;99.90
9776;DHT22;4927;52.472;13.108;2023-03-18T00:08:26;8.20;99.90
9776;DHT22;4927;52.472;13.108;2023-03-18T00:09:44;8.20;99.90
9776;DHT22;4927;52.472;13.108;2023-03-18T00:11:02;8.20;99.90
9776;DHT22;4927;52.472;13.108;2023-03-18T00:12:20;8.20;99.90
9776;DHT22;4927;52.472;13.108;2023-03-18T00:13:36;8.20;99.90
9776;DHT22;4927;52.472;13.108;2023-03-18T00:14:54;8.20;99.90
9776;DHT22;4927;52.472;13.108;2023-03-18T00:16:13;8.20;99.90
9776;DHT22;4927;52.472;13.108;2023-03-18T00:17:31;8.20;99.90
9776;DHT22;4927;52.472;13.108;2023-03-18T00:18:49;8.20;99.90
9776;DHT22;4927;52.472;13.108;2023-03-18T00:20:08;8.10;99.90
9776;DHT22;4927;52.472;13.108;2023-03-18T00:21:27;8.10;99.90
9776;DHT22;4927;52.472;13.108;2023-03-18T00:22:44;8.10;99.90
9776;DHT22;4927;52.472;13.108;2023-03-18T00:24:01;8.10;99.90
9776;DHT22;4927;52.472;13.108;2023-03-18T00:25:24;8.10;99.90
9776;DHT22;4927;52.472;13.108;2023-03-18T00:26:42;8.10;99.90
9776;DHT22;4927;52.472;13.108;2023-03-18T00:28:01;8.10;99.90
9776;DHT22;4927;52.472;13.108;2023-03-18T00:29:18;8.10;99.90
9776;DHT22;4927;52.472;13.108;2023-03-18T00:30:36;8.10;99.90
9776;DHT22;4927;52.472;13.108;2023-03-18T00:31:52;8.10;99.90
9776;DHT22;4927;52.472;13.108;2023-03-18T00:33:10;8.10;99.90
9776;DHT22;4927;52.472;13.108;2023-03-18T00:34:27;8.10;99.90
9776;DHT22;4927;52.472;13.108;2023-03-18T00:35:46;8.10;99.90
9776;DHT22;4927;52.472;13.108;2023-03-18T00:37:01;8.00;99.90
9776;DHT22;4927;52.472;13.108;2023-03-18T00:38:19;8.00;99.90
9776;DHT22;4927;52.472;13.108;2023-03-18T00:39:37;8.00;99.90
9776;DHT22;4927;52.472;13.108;2023-03-18T00:40:55;8.00;99.90
9776;DHT22;4927;52.472;13.108;2023-03-18T00:42:17;8.00;99.90
9776;DHT22;4927;52.472;13.108;2023-03-18T00:43:39;8.00;99.90
9776;DHT22;4927;52.472;13.108;2023-03-18T00:45:00;8.00;99.90
9776;DHT22;4927;52.472;13.108;2023-03-18T00:46:34;8.00;99.90
9776;DHT22;4927;52.472;13.108;2023-03-18T00:47:52;8.00;99.90
9776;DHT22;4927;52.472;13.108;2023-03-18T00:49:10;8.00;99.90
9776;DHT22;4927;52.472;13.108;2023-03-18T00:50:29;8.00;99.90
9776;DHT22;4927;52.472;13.108;2023-03-18T00:51:47;8.00;99.90
9776;DHT22;4927;52.472;13.108;2023-03-18T00:53:06;8.00;99.90
9776;DHT22;4927;52.472;13.108;2023-03-18T00:54:24;8.00;99.90
9776;DHT22;4927;52.472;13.108;2023-03-18T00:55:42;8.00;99.90
9776;DHT22;4927;52.472;13.108;2023-03-18T00:57:00;8.00;99.90
9776;DHT22;4927;52.472;13.108;2023-03-18T00:58:18;7.90;99.90
9776;DHT22;4927;52.472;13.108;2023-03-18T00:59:36;7.90;99.90
9776;DHT22;4927;52.472;13.108;2023-03-18T01:00:54;7.90;99.90
9776;DHT22;4927;52.472;13.108;2023-03-18T01:02:12;7.90;99.90
9776;DHT22;4927;52.472;13.108;2023-03-18T01:03:30;7.90;99.90
9776;DHT22;4927;52.472;13.108;2023-03-18T01:04:49;7.90;99.90
9776;DHT22;4927;52.472;13.108;2023-03-18T01:06:07;7.90;99.90
9776;DHT22;4927;52.472;13.108;2023-03-18T01:07:24;7.90;99.90
9776;DHT22;4927;52.472;13.108;2023-03-18T01:08:42;7.90;99.90
9776;DHT22;4927;52.472;13.108;2023-03-18T01:10:00;7.90;99.90
9776;DHT22;4927;52.472;13.108;2023-03-18T01:11:18;7.90;99.90
9776;DHT22;4927;52.472;13.108;2023-03-18T01:12:35;7.90;99.90
9776;DHT22;4927;52.472;13.108;2023-03-18T01:13:53;7.90;99.90
9776;DHT22;4927;52.472;13.108;2023-03-18T01:15:12;7.90;99.90
9776;DHT22;4927;52.472;13.108;2023-03-18T01:16:28;7.90;99.90
9776;DHT22;4927;52.472;13.108;2023-03-18T01:17:47;7.90;99.90
9776;DHT22;4927;52.472;13.108;2023-03-18T01:19:06;7.90;99.90
9776;DHT22;4927;52.472;13.108;2023-03-18T01:20:24;7.90;99.90
9776;DHT22;4927;52.472;13.108;2023-03-18T01:21:42;7.90;99.90
9776;DHT22;4927;52.472;13.108;2023-03-18T01:23:00;7.90;99.90
9776;DHT22;4927;52.472;13.108;2023-03-18T01:24:17;7.90;99.90
9776;DHT22;4927;52.472;13.108;2023-03-18T01:25:35;7.90;99.90
9776;DHT22;4927;52.472;13.108;2023-03-18T01:26:53;7.90;99.90
9776;DHT22;4927;52.472;13.108;2023-03-18T01:28:11;7.90;99.90
9776;DHT22;4927;52.472;13.108;2023-03-18T01:29:28;7.90;99.90
9776;DHT22;4927;52.472;13.108;2023-03-18T01:30:46;7.90;99.90
9776;DHT22;4927;52.472;13.108;2023-03-18T01:32:04;7.90;99.90
9776;DHT22;4927;52.472;13.108;2023-03-18T01:33:23;7.80;99.90
9776;DHT22;4927;52.472;13.108;2023-03-18T01:34:41;7.80;99.90
9776;DHT22;4927;52.472;13.108;2023-03-18T01:35:59;7.90;99.90
9776;DHT22;4927;52.472;13.108;2023-03-18T01:37:17;7.90;99.90
9776;DHT22;4927;52.472;13.108;2023-03-18T01:38:35;7.90;99.90
9776;DHT22;4927;52.472;13.108;2023-03-18T01:39:53;7.90;99.90
9776;DHT22;4927;52.472;13.108;2023-03-18T01:41:11;7.90;99.90
9776;DHT22;4927;52.472;13.108;2023-03-18T01:42:30;7.90;99.90
9776;DHT22;4927;52.472;13.108;2023-03-18T01:43:48;7.90;99.90
9776;DHT22;4927;52.472;13.108;2023-03-18T01:45:10;7.90;99.90
9776;DHT22;4927;52.472;13.108;2023-03-18T01:46:35;7.90;99.90
9776;DHT22;4927;52.472;13.108;2023-03-18T01:47:50;7.90;99.90
9776;DHT22;4927;52.472;13.108;2023-03-18T01:49:08;7.90;99.90
9776;DHT22;4927;52.472;13.108;2023-03-18T01:50:27;7.90;99.90
9776;DHT22;4927;52.472;13.108;2023-03-18T01:51:43;7.90;99.90
9776;DHT22;4927;52.472;13.108;2023-03-18T01:53:07;7.90;99.90
9776;DHT22;4927;52.472;13.108;2023-03-18T01:54:23;7.90;99.90
9776;DHT22;4927;52.472;13.108;2023-03-18T01:55:41;7.80;99.90
9776;DHT22;4927;52.472;13.108;2023-03-18T01:56:59;7.80;99.90
9776;DHT22;4927;52.472;13.108;2023-03-18T01:58:23;7.90;99.90
9776;DHT22;4927;52.472;13.108;2023-03-18T01:59:37;7.90;99.90
9776;DHT22;4927;52.472;13.108;2023-03-18T02:00:58;7.90;99.90
9776;DHT22;4927;52.472;13.108;2023-03-18T02:02:13;7.90;99.90
9776;DHT22;4927;52.472;13.108;2023-03-18T02:03:30;7.80;99.90
9776;DHT22;4927;52.472;13.108;2023-03-18T02:04:49;7.80;99.90
9776;DHT22;4927;52.472;13.108;2023-03-18T02:06:07;7.80;99.90
9776;DHT22;4927;52.472;13.108;2023-03-18T02:07:25;7.80;99.90
9776;DHT22;4927;52.472;13.108;2023-03-18T02:08:42;7.80;99.90
9776;DHT22;4927;52.472;13.108;2023-03-18T02:10:03;7.90;99.90
9776;DHT22;4927;52.472;13.108;2023-03-18T02:11:20;7.90;99.90
9776;DHT22;4927;52.472;13.108;2023-03-18T02:12:39;7.90;99.90
9776;DHT22;4927;52.472;13.108;2023-03-18T02:13:55;7.90;99.90
9776;DHT22;4927;52.472;13.108;2023-03-18T02:15:15;7.90;99.90
9776;DHT22;4927;52.472;13.108;2023-03-18T02:16:38;7.90;99.90
9776;DHT22;4927;52.472;13.108;2023-03-18T02:18:02;7.90;99.90
9776;DHT22;4927;52.472;13.108;2023-03-18T02:19:26;7.90;99.90
9776;DHT22;4927;52.472;13.108;2023-03-18T02:20:50;7.90;99.90
9776;DHT22;4927;52.472;13.108;2023-03-18T02:22:13;7.90;99.90
9776;DHT22;4927;52.472;13.108;2023-03-18T02:23:46;7.80;99.90
9776;DHT22;4927;52.472;13.108;2023-03-18T02:25:30;7.80;99.90
9776;DHT22;4927;52.472;13.108;2023-03-18T02:26:56;7.80;99.90
9776;DHT22;4927;52.472;13.108;2023-03-18T02:28:19;7.80;99.90
9776;DHT22;4927;52.472;13.108;2023-03-18T02:29:36;7.80;99.90
9776;DHT22;4927;52.472;13.108;2023-03-18T02:30:56;7.80;99.90
9776;DHT22;4927;52.472;13.108;2023-03-18T02:32:12;7.80;99.90
9776;DHT22;4927;52.472;13.108;2023-03-18T02:33:33;7.80;99.90
9776;DHT22;4927;52.472;13.108;2023-03-18T02:34:50;7.80;99.90
9776;DHT22;4927;52.472;13.108;2023-03-18T02:36:10;7.80;99.90
9776;DHT22;4927;52.472;13.108;2023-03-18T02:37:26;7.80;99.90
9776;DHT22;4927;52.472;13.108;2023-03-18T02:38:45;7.80;99.90
9776;DHT22;4927;52.472;13.108;2023-03-18T02:40:12;7.80;99.90
9776;DHT22;4927;52.472;13.108;2023-03-18T02:41:31;7.80;99.90
9776;DHT22;4927;52.472;13.108;2023-03-18T02:42:49;7.80;99.90
9776;DHT22;4927;52.472;13.108;2023-03-18T02:44:08;7.80;99.90
9776;DHT22;4927;52.472;13.108;2023-03-18T02:45:29;7.80;99.90
9776;DHT22;4927;52.472;13.108;2023-03-18T02:46:57;7.80;99.90
9776;DHT22;4927;52.472;13.108;2023-03-18T02:48:16;7.80;99.90
9776;DHT22;4927;52.472;13.108;2023-03-18T02:49:32;7.80;99.90
9776;DHT22;4927;52.472;13.108;2023-03-18T02:50:50;7.80;99.90
9776;DHT22;4927;52.472;13.108;2023-03-18T02:52:06;7.80;99.90
9776;DHT22;4927;52.472;13.108;2023-03-18T02:53:24;7.80;99.90
9776;DHT22;4927;52.472;13.108;2023-03-18T02:54:42;7.80;99.90
9776;DHT22;4927;52.472;13.108;2023-03-18T02:56:00;7.80;99.90
9776;DHT22;4927;52.472;13.108;2023-03-18T02:57:18;7.80;99.90
9776;DHT22;4927;52.472;13.108;2023-03-18T02:58:36;7.80;99.90
9776;DHT22;4927;52.472;13.108;2023-03-18T02:59:54;7.80;99.90
9776;DHT22;4927;52.472;13.108;2023-03-18T03:01:12;7.80;99.90
9776;DHT22;4927;52.472;13.108;2023-03-18T03:02:30;7.80;99.90
9776;DHT22;4927;52.472;13.108;2023-03-18T03:03:48;7.80;99.90
9776;DHT22;4927;52.472;13.108;2023-03-18T03:05:06;7.80;99.90
9776;DHT22;4927;52.472;13.108;2023-03-18T03:06:25;7.80;99.90
9776;DHT22;4927;52.472;13.108;2023-03-18T03:07:43;7.80;99.90
9776;DHT22;4927;52.472;13.108;2023-03-18T03:09:02;7.80;99.90
9776;DHT22;4927;52.472;13.108;2023-03-18T03:10:19;7.80;99.90
9776;DHT22;4927;52.472;13.108;2023-03-18T03:11:37;7.80;99.90
9776;DHT22;4927;52.472;13.108;2023-03-18T03:12:55;7.80;99.90
9776;DHT22;4927;52.472;13.108;2023-03-18T03:14:13;7.80;99.90
9776;DHT22;4927;52.472;13.108;2023-03-18T03:15:30;7.80;99.90
9776;DHT22;4927;52.472;13.108;2023-03-18T03:16:50;7.80;99.90
9776;DHT22;4927;52.472;13.108;2023-03-18T03:18:08;7.80;99.90
9776;DHT22;4927;52.472;13.108;2023-03-18T03:19:26;7.80;99.90
9776;DHT22;4927;52.472;13.108;2023-03-18T03:20:44;7.80;99.90
9776;DHT22;4927;52.472;13.108;2023-03-18T03:22:03;7.90;99.90
9776;DHT22;4927;52.472;13.108;2023-03-18T03:23:21;7.90;99.90
9776;DHT22;4927;52.472;13.108;2023-03-18T03:24:38;7.90;99.90
9776;DHT22;4927;52.472;13.108;2023-03-18T03:25:56;7.80;99.90
9776;DHT22;4927;52.472;13.108;2023-03-18T03:27:14;7.80;99.90
9776;DHT22;4927;52.472;13.108;2023-03-18T03:28:32;7.80;99.90
9776;DHT22;4927;52.472;13.108;2023-03-18T03:29:50;7.80;99.90
9776;DHT22;4927;52.472;13.108;2023-03-18T03:31:08;7.80;99.90
9776;DHT22;4927;52.472;13.108;2023-03-18T03:32:26;7.80;99.90
9776;DHT22;4927;52.472;13.108;2023-03-18T03:33:44;7.80;99.90
9776;DHT22;4927;52.472;13.108;2023-03-18T03:35:02;7.80;99.90
9776;DHT22;4927;52.472;13.108;2023-03-18T03:36:20;7.80;99.90
9776;DHT22;4927;52.472;13.108;2023-03-18T03:37:38;7.80;99.90
9776;DHT22;4927;52.472;13.108;2023-03-18T03:38:57;7.80;99.90
9776;DHT22;4927;52.472;13.108;2023-03-18T03:40:16;7.80;99.90
9776;DHT22;4927;52.472;13.108;2023-03-18T03:41:33;7.80;99.90
9776;DHT22;4927;52.472;13.108;2023-03-18T03:42:52;7.80;99.90
9776;DHT22;4927;52.472;13.108;2023-03-18T03:44:08;7.80;99.90
9776;DHT22;4927;52.472;13.108;2023-03-18T03:45:26;7.80;99.90
9776;DHT22;4927;52.472;13.108;2023-03-18T03:46:42;7.80;99.90
9776;DHT22;4927;52.472;13.108;2023-03-18T03:48:00;7.80;99.90
9776;DHT22;4927;52.472;13.108;2023-03-18T03:49:18;7.70;99.90
9776;DHT22;4927;52.472;13.108;2023-03-18T03:50:34;7.70;99.90
9776;DHT22;4927;52.472;13.108;2023-03-18T03:51:52;7.70;99.90
9776;DHT22;4927;52.472;13.108;2023-03-18T03:53:09;7.70;99.90
9776;DHT22;4927;52.472;13.108;2023-03-18T03:54:27;7.70;99.90
9776;DHT22;4927;52.472;13.108;2023-03-18T03:55:45;7.70;99.90
9776;DHT22;4927;52.472;13.108;2023-03-18T03:57:03;7.70;99.90
9776;DHT22;4927;52.472;13.108;2023-03-18T03:58:21;7.60;99.90
9776;DHT22;4927;52.472;13.108;2023-03-18T03:59:39;7.70;99.90
9776;DHT22;4927;52.472;13.108;2023-03-18T04:00:57;7.60;99.90
9776;DHT22;4927;52.472;13.108;2023-03-18T04:02:16;7.60;99.90
9776;DHT22;4927;52.472;13.108;2023-03-18T04:03:33;7.70;99.90
9776;DHT22;4927;52.472;13.108;2023-03-18T04:04:51;7.70;99.90
9776;DHT22;4927;52.472;13.108;2023-03-18T04:06:09;7.70;99.90
9776;DHT22;4927;52.472;13.108;2023-03-18T04:07:28;7.60;99.90
9776;DHT22;4927;52.472;13.108;2023-03-18T04:08:45;7.70;99.90
9776;DHT22;4927;52.472;13.108;2023-03-18T04:10:04;7.70;99.90
9776;DHT22;4927;52.472;13.108;2023-03-18T04:11:22;7.70;99.90
9776;DHT22;4927;52.472;13.108;2023-03-18T04:12:40;7.60;99.90
9776;DHT22;4927;52.472;13.108;2023-03-18T04:13:58;7.60;99.90
9776;DHT22;4927;52.472;13.108;2023-03-18T04:15:17;7.70;99.90
9776;DHT22;4927;52.472;13.108;2023-03-18T04:16:35;7.70;99.90
9776;DHT22;4927;52.472;13.108;2023-03-18T04:17:53;7.70;99.90
9776;DHT22;4927;52.472;13.108;2023-03-18T04:19:11;7.60;99.90
9776;DHT22;4927;52.472;13.108;2023-03-18T04:20:29;7.70;99.90
9776;DHT22;4927;52.472;13.108;2023-03-18T04:21:47;7.60;99.90
9776;DHT22;4927;52.472;13.108;2023-03-18T04:23:05;7.60;99.90
9776;DHT22;4927;52.472;13.108;2023-03-18T04:24:23;7.60;99.90
9776;DHT22;4927;52.472;13.108;2023-03-18T04:25:40;7.60;99.90
9776;DHT22;4927;52.472;13.108;2023-03-18T04:26:58;7.60;99.90
9776;DHT22;4927;52.472;13.108;2023-03-18T04:28:17;7.60;99.90
9776;DHT22;4927;52.472;13.108;2023-03-18T04:29:35;7.60;99.90
9776;DHT22;4927;52.472;13.108;2023-03-18T04:30:53;7.60;99.90
9776;DHT22;4927;52.472;13.108;2023-03-18T04:32:10;7.60;99.90
9776;DHT22;4927;52.472;13.108;2023-03-18T04:33:28;7.50;99.90
9776;DHT22;4927;52.472;13.108;2023-03-18T04:34:44;7.50;99.90
9776;DHT22;4927;52.472;13.108;2023-03-18T04:36:02;7.50;99.90
9776;DHT22;4927;52.472;13.108;2023-03-18T04:37:20;7.50;99.90
9776;DHT22;4927;52.472;13.108;2023-03-18T04:38:38;7.50;99.90
9776;DHT22;4927;52.472;13.108;2023-03-18T04:39:56;7.50;99.90
9776;DHT22;4927;52.472;13.108;2023-03-18T04:41:12;7.40;99.90
9776;DHT22;4927;52.472;13.108;2023-03-18T04:42:30;7.40;99.90
9776;DHT22;4927;52.472;13.108;2023-03-18T04:43:48;7.40;99.90
9776;DHT22;4927;52.472;13.108;2023-03-18T04:45:06;7.40;99.90
9776;DHT22;4927;52.472;13.108;2023-03-18T04:46:24;7.40;99.90
9776;DHT22;4927;52.472;13.108;2023-03-18T04:47:43;7.40;99.90
9776;DHT22;4927;52.472;13.108;2023-03-18T04:49:00;7.30;99.90
9776;DHT22;4927;52.472;13.108;2023-03-18T04:50:16;7.30;99.90
9776;DHT22;4927;52.472;13.108;2023-03-18T04:51:35;7.30;99.90
9776;DHT22;4927;52.472;13.108;2023-03-18T04:52:51;7.30;99.90
9776;DHT22;4927;52.472;13.108;2023-03-18T04:54:09;7.30;99.90
9776;DHT22;4927;52.472;13.108;2023-03-18T04:55:25;7.20;99.90
9776;DHT22;4927;52.472;13.108;2023-03-18T04:56:43;7.20;99.90
9776;DHT22;4927;52.472;13.108;2023-03-18T04:58:01;7.20;99.90
9776;DHT22;4927;52.472;13.108;2023-03-18T04:59:19;7.20;99.90
9776;DHT22;4927;52.472;13.108;2023-03-18T05:00:36;7.20;99.90
9776;DHT22;4927;52.472;13.108;2023-03-18T05:01:54;7.10;99.90
9776;DHT22;4927;52.472;13.108;2023-03-18T05:03:10;7.10;99.90
9776;DHT22;4927;52.472;13.108;2023-03-18T05:04:28;7.10;99.90
9776;DHT22;4927;52.472;13.108;2023-03-18T05:05:46;7.10;99.90
9776;DHT22;4927;52.472;13.108;2023-03-18T05:07:02;7.00;99.90
9776;DHT22;4927;52.472;13.108;2023-03-18T05:08:20;7.00;99.90
9776;DHT22;4927;52.472;13.108;2023-03-18T05:09:38;7.00;99.90
9776;DHT22;4927;52.472;13.108;2023-03-18T05:10:56;6.90;99.90
9776;DHT22;4927;52.472;13.108;2023-03-18T05:12:15;6.90;99.90
9776;DHT22;4927;52.472;13.108;2023-03-18T05:13:33;6.90;99.90
9776;DHT22;4927;52.472;13.108;2023-03-18T05:14:51;6.90;99.90
9776;DHT22;4927;52.472;13.108;2023-03-18T05:16:09;6.90;99.90
9776;DHT22;4927;52.472;13.108;2023-03-18T05:17:25;6.80;99.90
9776;DHT22;4927;52.472;13.108;2023-03-18T05:18:43;6.80;99.90
9776;DHT22;4927;52.472;13.108;2023-03-18T05:20:01;6.80;99.90
9776;DHT22;4927;52.472;13.108;2023-03-18T05:21:19;6.80;99.90
9776;DHT22;4927;52.472;13.108;2023-03-18T05:22:37;6.80;99.90
9776;DHT22;4927;52.472;13.108;2023-03-18T05:23:55;6.70;99.90
9776;DHT22;4927;52.472;13.108;2023-03-18T05:25:14;6.70;99.90
9776;DHT22;4927;52.472;13.108;2023-03-18T05:26:31;6.70;99.90
9776;DHT22;4927;52.472;13.108;2023-03-18T05:27:47;6.70;99.90
9776;DHT22;4927;52.472;13.108;2023-03-18T05:29:04;6.70;99.90
9776;DHT22;4927;52.472;13.108;2023-03-18T05:30:22;6.70;99.90
9776;DHT22;4927;52.472;13.108;2023-03-18T05:31:39;6.70;99.90
9776;DHT22;4927;52.472;13.108;2023-03-18T05:32:55;6.70;99.90
9776;DHT22;4927;52.472;13.108;2023-03-18T05:34:13;6.70;99.90
9776;DHT22;4927;52.472;13.108;2023-03-18T05:35:31;6.60;99.90
9776;DHT22;4927;52.472;13.108;2023-03-18T05:36:49;6.70;99.90
9776;DHT22;4927;52.472;13.108;2023-03-18T05:38:07;6.60;99.90
9776;DHT22;4927;52.472;13.108;2023-03-18T05:39:24;6.60;99.90
9776;DHT22;4927;52.472;13.108;2023-03-18T05:40:43;6.60;99.90
9776;DHT22;4927;52.472;13.108;2023-03-18T05:42:01;6.60;99.90
9776;DHT22;4927;52.472;13.108;2023-03-18T05:43:20;6.60;99.90
9776;DHT22;4927;52.472;13.108;2023-03-18T05:44:38;6.60;99.90
9776;DHT22;4927;52.472;13.108;2023-03-18T05:45:56;6.60;99.90
9776;DHT22;4927;52.472;13.108;2023-03-18T05:47:15;6.60;99.90
9776;DHT22;4927;52.472;13.108;2023-03-18T05:48:31;6.60;99.90
9776;DHT22;4927;52.472;13.108;2023-03-18T05:49:48;6.60;99.90
9776;DHT22;4927;52.472;13.108;2023-03-18T05:51:06;6.60;99.90
9776;DHT22;4927;52.472;13.108;2023-03-18T05:52:25;6.60;99.90
9776;DHT22;4927;52.472;13.108;2023-03-18T05:53:43;6.50;99.90
9776;DHT22;4927;52.472;13.108;2023-03-18T05:55:01;6.50;99.90
9776;DHT22;4927;52.472;13.108;2023-03-18T05:56:19;6.50;99.90
9776;DHT22;4927;52.472;13.108;2023-03-18T05:57:35;6.50;99.90
9776;DHT22;4927;52.472;13.108;2023-03-18T05:58:53;6.50;99.90
9776;DHT22;4927;52.472;13.108;2023-03-18T06:00:11;6.50;99.90
9776;DHT22;4927;52.472;13.108;2023-03-18T06:01:30;6.50;99.90
9776;DHT22;4927;52.472;13.108;2023-03-18T06:02:50;6.50;99.90
9776;DHT22;4927;52.472;13.108;2023-03-18T06:04:07;6.50;99.90
9776;DHT22;4927;52.472;13.108;2023-03-18T06:05:23;6.50;99.90
9776;DHT22;4927;52.472;13.108;2023-03-18T06:06:42;6.50;99.90
9776;DHT22;4927;52.472;13.108;2023-03-18T06:08:03;6.50;99.90
9776;DHT22;4927;52.472;13.108;2023-03-18T06:09:22;6.50;99.90
9776;DHT22;4927;52.472;13.108;2023-03-18T06:10:40;6.60;99.90
9776;DHT22;4927;52.472;13.108;2023-03-18T06:11:59;6.60;99.90
9776;DHT22;4927;52.472;13.108;2023-03-18T06:13:17;6.50;99.90
9776;DHT22;4927;52.472;13.108;2023-03-18T06:14:33;6.60;99.90
9776;DHT22;4927;52.472;13.108;2023-03-18T06:15:55;6.60;99.90
9776;DHT22;4927;52.472;13.108;2023-03-18T06:17:12;6.60;99.90
9776;DHT22;4927;52.472;13.108;2023-03-18T06:18:30;6.60;99.90
9776;DHT22;4927;52.472;13.108;2023-03-18T06:19:49;6.70;99.90
9776;DHT22;4927;52.472;13.108;2023-03-18T06:21:08;6.70;99.90
9776;DHT22;4927;52.472;13.108;2023-03-18T06:22:25;6.70;99.90
9776;DHT22;4927;52.472;13.108;2023-03-18T06:23:46;6.70;99.90
9776;DHT22;4927;52.472;13.108;2023-03-18T06:25:06;6.80;99.90
9776;DHT22;4927;52.472;13.108;2023-03-18T06:26:24;6.80;99.90
9776;DHT22;4927;52.472;13.108;2023-03-18T06:27:42;6.90;99.90
9776;DHT22;4927;52.472;13.108;2023-03-18T06:28:58;6.80;99.90
9776;DHT22;4927;52.472;13.108;2023-03-18T06:30:15;6.80;99.90
9776;DHT22;4927;52.472;13.108;2023-03-18T06:31:33;6.80;99.90
9776;DHT22;4927;52.472;13.108;2023-03-18T06:32:50;6.90;99.90
9776;DHT22;4927;52.472;13.108;2023-03-18T06:34:08;6.90;99.90
9776;DHT22;4927;52.472;13.108;2023-03-18T06:35:26;6.80;99.90
9776;DHT22;4927;52.472;13.108;2023-03-18T06:36:42;6.90;99.90
9776;DHT22;4927;52.472;13.108;2023-03-18T06:38:00;6.90;99.90
9776;DHT22;4927;52.472;13.108;2023-03-18T06:39:20;6.90;99.90
9776;DHT22;4927;52.472;13.108;2023-03-18T06:40:38;6.90;99.90
9776;DHT22;4927;52.472;13.108;2023-03-18T06:41:57;6.90;99.90
9776;DHT22;4927;52.472;13.108;2023-03-18T06:43:15;6.90;99.90
9776;DHT22;4927;52.472;13.108;2023-03-18T06:44:32;6.90;99.90
9776;DHT22;4927;52.472;13.108;2023-03-18T06:45:50;7.00;99.90
9776;DHT22;4927;52.472;13.108;2023-03-18T06:47:08;7.00;99.90
9776;DHT22;4927;52.472;13.108;2023-03-18T06:48:26;7.00;99.90
9776;DHT22;4927;52.472;13.108;2023-03-18T06:49:42;7.10;99.90
9776;DHT22;4927;52.472;13.108;2023-03-18T06:51:00;7.10;99.90
9776;DHT22;4927;52.472;13.108;2023-03-18T06:52:18;7.20;99.90
9776;DHT22;4927;52.472;13.108;2023-03-18T06:53:36;7.30;99.90
9776;DHT22;4927;52.472;13.108;2023-03-18T06:54:54;7.20;99.90
9776;DHT22;4927;52.472;13.108;2023-03-18T06:56:13;7.30;99.90
9776;DHT22;4927;52.472;13.108;2023-03-18T06:57:31;7.40;99.90
9776;DHT22;4927;52.472;13.108;2023-03-18T06:58:49;7.40;99.90
9776;DHT22;4927;52.472;13.108;2023-03-18T07:00:08;7.40;99.90
9776;DHT22;4927;52.472;13.108;2023-03-18T07:01:27;7.50;99.90
9776;DHT22;4927;52.472;13.108;2023-03-18T07:02:46;7.50;99.90
9776;DHT22;4927;52.472;13.108;2023-03-18T07:04:03;7.50;99.90
9776;DHT22;4927;52.472;13.108;2023-03-18T07:05:21;7.50;99.90
9776;DHT22;4927;52.472;13.108;2023-03-18T07:06:40;7.50;99.90
9776;DHT22;4927;52.472;13.108;2023-03-18T07:07:57;7.50;99.90
9776;DHT22;4927;52.472;13.108;2023-03-18T07:09:13;7.50;99.90
9776;DHT22;4927;52.472;13.108;2023-03-18T07:10:31;7.50;99.90
9776;DHT22;4927;52.472;13.108;2023-03-18T07:11:47;7.50;99.90
9776;DHT22;4927;52.472;13.108;2023-03-18T07:13:03;7.50;99.90
9776;DHT22;4927;52.472;13.108;2023-03-18T07:14:21;7.50;99.90
9776;DHT22;4927;52.472;13.108;2023-03-18T07:15:38;7.50;99.90
9776;DHT22;4927;52.472;13.108;2023-03-18T07:16:56;7.60;99.90
9776;DHT22;4927;52.472;13.108;2023-03-18T07:18:14;7.60;99.90
9776;DHT22;4927;52.472;13.108;2023-03-18T07:19:32;7.60;99.90
9776;DHT22;4927;52.472;13.108;2023-03-18T07:20:51;7.60;99.90
9776;DHT22;4927;52.472;13.108;2023-03-18T07:22:06;7.60;99.90
9776;DHT22;4927;52.472;13.108;2023-03-18T07:23:24;7.60;99.90
9776;DHT22;4927;52.472;13.108;2023-03-18T07:24:43;7.70;99.90
9776;DHT22;4927;52.472;13.108;2023-03-18T07:25:58;7.70;99.90
9776;DHT22;4927;52.472;13.108;2023-03-18T07:27:15;7.80;99.90
9776;DHT22;4927;52.472;13.108;2023-03-18T07:28:33;7.80;99.90
9776;DHT22;4927;52.472;13.108;2023-03-18T07:29:51;7.90;99.90
9776;DHT22;4927;52.472;13.108;2023-03-18T07:31:09;7.90;99.90
9776;DHT22;4927;52.472;13.108;2023-03-18T07:32:26;8.00;99.90
9776;DHT22;4927;52.472;13.108;2023-03-18T07:33:45;8.10;99.90
9776;DHT22;4927;52.472;13.108;2023-03-18T07:35:04;8.10;99.90
9776;DHT22;4927;52.472;13.108;2023-03-18T07:36:24;8.20;99.90
9776;DHT22;4927;52.472;13.108;2023-03-18T07:37:42;8.30;99.90
9776;DHT22;4927;52.472;13.108;2023-03-18T07:39:00;8.30;99.90
9776;DHT22;4927;52.472;13.108;2023-03-18T07:40:18;8.30;99.90
9776;DHT22;4927;52.472;13.108;2023-03-18T07:41:36;8.40;99.90
9776;DHT22;4927;52.472;13.108;2023-03-18T07:42:54;8.50;99.90
9776;DHT22;4927;52.472;13.108;2023-03-18T07:44:12;8.50;99.90
9776;DHT22;4927;52.472;13.108;2023-03-18T07:45:30;8.60;99.90
9776;DHT22;4927;52.472;13.108;2023-03-18T07:46:48;8.60;99.90
9776;DHT22;4927;52.472;13.108;2023-03-18T07:48:05;8.60;99.90
9776;DHT22;4927;52.472;13.108;2023-03-18T07:49:23;8.70;99.90
9776;DHT22;4927;52.472;13.108;2023-03-18T07:50:39;8.80;99.90
9776;DHT22;4927;52.472;13.108;2023-03-18T07:51:55;8.30;99.90
9776;DHT22;4927;52.472;13.108;2023-03-18T07:53:12;9.00;99.90
9776;DHT22;4927;52.472;13.108;2023-03-18T07:54:30;9.00;99.90
9776;DHT22;4927;52.472;13.108;2023-03-18T07:55:45;9.10;99.90
9776;DHT22;4927;52.472;13.108;2023-03-18T07:57:03;9.20;99.90
9776;DHT22;4927;52.472;13.108;2023-03-18T07:58:22;9.30;99.90
9776;DHT22;4927;52.472;13.108;2023-03-18T07:59:41;9.40;99.90
9776;DHT22;4927;52.472;13.108;2023-03-18T08:00:59;9.50;99.90
9776;DHT22;4927;52.472;13.108;2023-03-18T08:02:18;9.60;99.90
9776;DHT22;4927;52.472;13.108;2023-03-18T08:03:36;9.60;99.90
9776;DHT22;4927;52.472;13.108;2023-03-18T08:04:54;9.70;99.90
9776;DHT22;4927;52.472;13.108;2023-03-18T08:06:12;9.70;99.90
9776;DHT22;4927;52.472;13.108;2023-03-18T08:07:27;9.90;99.90
9776;DHT22;4927;52.472;13.108;2023-03-18T08:08:45;9.90;99.90
9776;DHT22;4927;52.472;13.108;2023-03-18T08:10:05;10.00;99.90
9776;DHT22;4927;52.472;13.108;2023-03-18T08:11:23;10.00;99.90
9776;DHT22;4927;52.472;13.108;2023-03-18T08:12:39;10.10;99.90
9776;DHT22;4927;52.472;13.108;2023-03-18T08:13:57;10.20;99.90
9776;DHT22;4927;52.472;13.108;2023-03-18T08:15:15;10.20;99.90
9776;DHT22;4927;52.472;13.108;2023-03-18T08:16:31;10.30;99.90
9776;DHT22;4927;52.472;13.108;2023-03-18T08:17:49;10.40;99.90
9776;DHT22;4927;52.472;13.108;2023-03-18T08:19:07;10.50;99.90
9776;DHT22;4927;52.472;13.108;2023-03-18T08:20:25;10.60;99.90
9776;DHT22;4927;52.472;13.108;2023-03-18T08:21:41;10.70;99.90
9776;DHT22;4927;52.472;13.108;2023-03-18T08:22:59;10.70;99.90
9776;DHT22;4927;52.472;13.108;2023-03-18T08:24:15;10.80;99.90
9776;DHT22;4927;52.472;13.108;2023-03-18T08:25:33;10.90;99.90
9776;DHT22;4927;52.472;13.108;2023-03-18T08:26:51;11.10;99.90
9776;DHT22;4927;52.472;13.108;2023-03-18T08:28:07;11.10;99.90
9776;DHT22;4927;52.472;13.108;2023-03-18T08:29:25;11.20;99.90
9776;DHT22;4927;52.472;13.108;2023-03-18T08:30:41;11.20;99.90